Eagle Albany — S6TD — position and weather

sailwx.info

Track history (hours):
 
Tides and Currents Weather Stations Pressure Air Temp Water Temp Dewpoint Dewpoint Depression Visibility Wind Speed Wind Dir Waves Ship Positions

Eagle Albany

Last reported at 2013-Sep-07 20:20 UTC. Time now 2014-Oct-22 09:46 UTC.
Position N 01°18' E 103°39'.
Warning: this ship's position is years out of date!

Length 247 m; draft 6 m.

Type: Tanker. MMSI: 564706000.

Date/timePositionNaut miles runAvg speedWind from/ knotsBaromVisibWave heightAir tempDewpointWater temp
2013-Sep-07 20:20N 01°18' E 103°39'0 0.0
2013-Sep-07 19:24N 01°18' E 103°39'0 0.0
2013-Sep-07 18:24N 01°18' E 103°39'0 0.0
2013-Sep-07 17:09N 01°18' E 103°39'0 0.0
2013-Sep-07 16:09N 01°18' E 103°39'0 0.0
2013-Sep-07 15:30N 01°18' E 103°39'0 0.0
2013-Sep-07 14:23N 01°18' E 103°39'0 0.0
2013-Sep-07 13:33N 01°18' E 103°39'0 0.0
2013-Sep-07 11:31N 01°18' E 103°39'0 0.0
2013-Sep-07 10:31N 01°18' E 103°39'0 0.0
2013-Sep-07 09:31N 01°18' E 103°39'0 0.0
2013-Sep-07 08:32N 01°18' E 103°39'0 0.0
2013-Sep-07 07:32N 01°18' E 103°39'0 0.1
2013-Sep-07 06:22N 01°18' E 103°39'0 0.4
2013-Sep-07 05:33N 01°17' E 103°39'2 2.0
2013-Sep-07 04:27N 01°15' E 103°39'2 2.4
2013-Sep-07 03:33N 01°13' E 103°40'1 0.6
2013-Sep-07 02:28N 01°13' E 103°40'2 2.5
2013-Sep-07 01:28N 01°10' E 103°41'4 4.3
2013-Sep-07 00:33N 01°09' E 103°45'4 4.5
2013-Sep-06 23:33N 01°11' E 103°49'4 3.5
2013-Sep-06 22:30N 01°12' E 103°52'3 3.2
2013-Sep-06 21:34N 01°12' E 103°55'3 3.2
2013-Sep-06 20:32N 01°12' E 103°59'0 0.1
2013-Sep-06 19:29N 01°12' E 103°59'0 0.1
2013-Sep-06 18:20N 01°12' E 103°59'0 0.0
2013-Sep-06 17:32N 01°12' E 103°59'0 0.0
2013-Sep-06 16:29N 01°11' E 103°59'0 0.1
2013-Sep-06 13:14N 01°11' E 103°58'0 0.1
2013-Sep-06 10:26N 01°12' E 103°59'0 0.1
2013-Sep-06 09:32N 01°12' E 103°59'0 0.0
2013-Sep-06 08:32N 01°12' E 103°59'0 0.1
2013-Sep-06 07:32N 01°12' E 103°59'0 0.1
2013-Sep-06 06:32N 01°12' E 103°59'0 0.0
2013-Sep-06 05:32N 01°12' E 103°59'0 0.0
2013-Sep-05 23:32N 01°12' E 103°59'0 0.0
2013-Sep-05 22:32N 01°11' E 103°59'0 0.1
2013-Sep-05 21:23N 01°12' E 103°59'0 0.0
2013-Sep-05 20:32N 01°12' E 103°59'0 0.1
2013-Sep-05 19:29N 01°12' E 103°59'0 0.0
2013-Sep-05 18:32N 01°12' E 103°59'0 0.0
2013-Sep-05 17:14N 01°12' E 103°59'0 0.1
2013-Sep-05 16:32N 01°12' E 103°59'0 0.1
2013-Sep-05 14:14N 01°11' E 103°58'0 0.0
2013-Sep-05 13:32N 01°11' E 103°58'0 0.0
2013-Sep-05 12:32N 01°11' E 103°58'0 0.0
2013-Sep-05 10:29N 01°12' E 103°58'0 0.1
2013-Sep-05 08:20N 01°12' E 103°59'0 0.0
2013-Sep-05 07:29N 01°12' E 103°59'0 0.0
2013-Sep-05 04:20N 01°12' E 103°59'0 0.3
2013-Sep-05 03:29N 01°11' E 103°59'0 0.2
2013-Sep-05 02:23N 01°11' E 103°59'0 0.1
2013-Sep-05 00:20N 01°12' E 103°59'0 0.1
2013-Sep-04 23:32N 01°12' E 103°59'0 0.0
2013-Sep-04 22:29N 01°12' E 103°59'0 0.0
2013-Sep-04 21:32N 01°12' E 103°59'0 0.0
2013-Sep-04 18:26N 01°12' E 103°59'0 0.0
2013-Sep-04 17:29N 01°12' E 103°59'0 0.1
2013-Sep-04 16:26N 01°11' E 103°59'0 0.2
2013-Sep-04 15:32N 01°11' E 103°59'0 0.1
2013-Sep-04 14:23N 01°11' E 103°58'0 0.0
2013-Sep-04 13:14N 01°11' E 103°58'0 0.0
2013-Sep-04 08:17N 01°11' E 103°59'0 0.0
2013-Sep-04 07:20N 01°11' E 103°59'0 0.2
2013-Sep-04 06:20N 01°11' E 103°59'0 0.0
2013-Sep-04 05:32N 01°11' E 103°59'0 0.0
2013-Sep-04 04:33N 01°11' E 103°59'0 0.0
2013-Sep-04 02:32N 01°11' E 103°59'0 0.2
2013-Sep-04 01:29N 01°11' E 103°58'0 0.1
2013-Sep-04 00:32N 01°12' E 103°58'0 0.2
2013-Sep-03 23:23N 01°11' E 103°59'0 0.1
2013-Sep-03 22:29N 01°12' E 103°59'0 0.0
2013-Sep-03 21:32N 01°12' E 103°59'0 0.0
2013-Sep-03 20:32N 01°12' E 103°59'0 0.0
2013-Sep-03 19:32N 01°12' E 103°59'0 0.0
2013-Sep-03 18:32N 01°12' E 103°59'0 0.0
2013-Sep-03 17:32N 01°12' E 103°59'0 0.0
2013-Sep-03 16:23N 01°12' E 103°59'0 0.1
2013-Sep-03 15:20N 01°12' E 103°59'0 0.2
2013-Sep-03 14:29N 01°11' E 103°58'0 0.0
2013-Sep-03 13:32N 01°11' E 103°58'0 0.0
2013-Sep-03 12:32N 01°11' E 103°58'0 0.0
2013-Sep-03 11:23N 01°11' E 103°58'0 0.0
2013-Sep-03 10:26N 01°11' E 103°58'0 0.0
2013-Sep-03 09:23N 01°11' E 103°58'0 0.0
2013-Sep-03 07:32N 01°11' E 103°58'0 0.0
2013-Sep-03 02:23N 01°11' E 103°59'0 0.0
2013-Sep-03 01:32N 01°11' E 103°59'0 0.1
2013-Sep-03 00:29N 01°11' E 103°58'0 0.0
2013-Sep-02 23:29N 01°11' E 103°58'0 0.2
2013-Sep-02 22:20N 01°12' E 103°59'0 0.1
2013-Sep-02 21:29N 01°12' E 103°59'0 0.0
2013-Sep-02 20:32N 01°12' E 103°59'0 0.0
2013-Sep-02 19:17N 01°12' E 103°59'0 0.0
2013-Sep-02 18:32N 01°12' E 103°59'0 0.0
2013-Sep-02 17:26N 01°12' E 103°59'0 0.0
2013-Sep-02 16:32N 01°12' E 103°59'0 0.1
2013-Sep-02 15:23N 01°11' E 103°59'0 0.3
2013-Sep-02 14:32N 01°11' E 103°58'0 0.0
2013-Sep-02 11:17N 01°11' E 103°58'0 0.1
2013-Sep-02 10:32N 01°11' E 103°58'0 0.0
2013-Sep-02 08:23N 01°12' E 103°58'0 0.1
2013-Sep-02 07:32N 01°11' E 103°58'0 0.0
2013-Sep-02 06:29N 01°11' E 103°58'0 0.1
2013-Sep-02 05:14N 01°11' E 103°59'0 0.0
2013-Sep-02 04:29N 01°11' E 103°59'0 0.0
2013-Sep-02 03:23N 01°11' E 103°59'0 0.0
2013-Sep-02 02:32N 01°11' E 103°59'0 0.0
2013-Sep-02 00:32N 01°11' E 103°59'0 0.1
2013-Sep-01 22:05N 01°12' E 103°59'0 0.1
2013-Sep-01 21:29N 01°12' E 103°59'0 0.0
2013-Sep-01 20:26N 01°12' E 103°59'0 0.2
2013-Sep-01 19:32N 01°11' E 103°59'0 0.0
2013-Sep-01 18:32N 01°11' E 103°59'0 0.0
2013-Sep-01 16:32N 01°12' E 103°59'0 0.0
2013-Sep-01 15:17N 01°12' E 103°59'0 0.1
2013-Sep-01 14:23N 01°11' E 103°59'0 0.3
2013-Sep-01 13:29N 01°11' E 103°58'0 0.0
2013-Sep-01 12:29N 01°11' E 103°58'0 0.0
2013-Sep-01 11:11N 01°11' E 103°58'0 0.0
2013-Sep-01 10:08N 01°11' E 103°58'0 0.0
2013-Sep-01 08:32N 01°11' E 103°58'0 0.0
2013-Sep-01 07:32N 01°11' E 103°58'0 0.0
2013-Sep-01 06:29N 01°11' E 103°58'0 0.1
2013-Sep-01 05:32N 01°11' E 103°59'0 0.0
2013-Sep-01 04:26N 01°11' E 103°59'0 0.1
2013-Sep-01 03:29N 01°11' E 103°58'0 0.0
2013-Sep-01 01:23N 01°11' E 103°58'0 0.0
2013-Sep-01 00:29N 01°11' E 103°58'0 0.0
2013-Aug-31 23:23N 01°11' E 103°58'0 0.1
2013-Aug-31 22:26N 01°12' E 103°58'0 0.1
2013-Aug-31 19:26N 01°12' E 103°59'0 0.1
2013-Aug-31 18:32N 01°12' E 103°59'0 0.0
2013-Aug-31 17:32N 01°12' E 103°59'0 0.1
2013-Aug-31 16:32N 01°12' E 103°59'0 0.1
2013-Aug-31 15:32N 01°12' E 103°59'0 0.0
2013-Aug-31 14:29N 01°12' E 103°59'0 0.0
2013-Aug-31 13:26N 01°12' E 103°59'0 0.1
2013-Aug-31 11:32N 01°11' E 103°58'0 0.0
2013-Aug-31 10:32N 01°11' E 103°58'0 0.0
2013-Aug-31 07:26N 01°11' E 103°58'0 0.0
2013-Aug-31 06:14N 01°11' E 103°58'0 0.1
2013-Aug-31 05:17N 01°11' E 103°58'0 0.0
2013-Aug-31 04:32N 01°11' E 103°58'0 0.1
2013-Aug-31 03:29N 01°11' E 103°58'0 0.0
2013-Aug-31 02:32N 01°11' E 103°58'0 0.0
2013-Aug-31 01:32N 01°11' E 103°58'0 0.1
2013-Aug-31 00:32N 01°11' E 103°58'0 0.0
2013-Aug-30 23:29N 01°11' E 103°58'0 0.1
2013-Aug-30 19:32N 01°12' E 103°59'0 0.0
2013-Aug-30 18:14N 01°12' E 103°59'0 0.1
2013-Aug-30 17:32N 01°12' E 103°59'0 0.1
2013-Aug-30 16:20N 01°12' E 103°59'0 0.0
2013-Aug-30 15:32N 01°12' E 103°59'0 0.0
2013-Aug-30 14:32N 01°12' E 103°59'0 0.0
2013-Aug-30 13:32N 01°12' E 103°59'0 0.1
2013-Aug-30 12:17N 01°12' E 103°59'0 0.2
2013-Aug-30 11:14N 01°12' E 103°58'0 0.2
2013-Aug-30 10:32N 01°11' E 103°58'0 0.0
2013-Aug-30 09:32N 01°11' E 103°58'0 0.0
2013-Aug-30 08:32N 01°11' E 103°58'0 0.1
2013-Aug-30 07:32N 01°11' E 103°58'0 0.1
2013-Aug-30 06:32N 01°11' E 103°58'0 0.0
2013-Aug-30 02:32N 01°11' E 103°58'0 0.1
2013-Aug-30 01:32N 01°11' E 103°58'0 0.1
2013-Aug-30 00:32N 01°11' E 103°58'0 0.0
2013-Aug-29 20:26N 01°12' E 103°59'0 0.1
2013-Aug-29 19:32N 01°12' E 103°59'0 0.1
2013-Aug-29 18:23N 01°12' E 103°59'0 0.0
2013-Aug-29 17:32N 01°12' E 103°59'0 0.0
2013-Aug-29 16:32N 01°11' E 103°59'0 0.0
2013-Aug-29 15:32N 01°12' E 103°59'0 0.0
2013-Aug-29 14:20N 01°12' E 103°59'0 0.0
2013-Aug-29 13:32N 01°12' E 103°59'0 0.0
2013-Aug-29 12:29N 01°12' E 103°59'0 0.1
2013-Aug-29 11:29N 01°11' E 103°59'0 0.0
2013-Aug-29 10:20N 01°11' E 103°59'0 0.2
2013-Aug-29 09:14N 01°11' E 103°59'0 0.1
2013-Aug-29 08:26N 01°11' E 103°58'  
Track history (hours):
 
Tides and Currents Weather Stations Pressure Air Temp Water Temp Dewpoint Dewpoint Depression Visibility Wind Speed Wind Dir Waves Ship Positions

Eagle Albany

Last reported at 2013-Sep-07 20:20 UTC. Time now 2014-Oct-22 09:46 UTC.
Position N 01°18' E 103°39'.
Warning: this ship's position is years out of date!

Length 247 m; draft 6 m.

Type: Tanker. MMSI: 564706000.

Date/timePositionNaut miles runAvg speedWind from/ knotsBaromVisibWave heightAir tempDewpointWater temp
2013-Sep-07 20:20N 01°18' E 103°39'0 0.0
2013-Sep-07 19:24N 01°18' E 103°39'0 0.0
2013-Sep-07 18:24N 01°18' E 103°39'0 0.0
2013-Sep-07 17:09N 01°18' E 103°39'0 0.0
2013-Sep-07 16:09N 01°18' E 103°39'0 0.0
2013-Sep-07 15:30N 01°18' E 103°39'0 0.0
2013-Sep-07 14:23N 01°18' E 103°39'0 0.0
2013-Sep-07 13:33N 01°18' E 103°39'0 0.0
2013-Sep-07 11:31N 01°18' E 103°39'0 0.0
2013-Sep-07 10:31N 01°18' E 103°39'0 0.0
2013-Sep-07 09:31N 01°18' E 103°39'0 0.0
2013-Sep-07 08:32N 01°18' E 103°39'0 0.0
2013-Sep-07 07:32N 01°18' E 103°39'0 0.1
2013-Sep-07 06:22N 01°18' E 103°39'0 0.4
2013-Sep-07 05:33N 01°17' E 103°39'2 2.0
2013-Sep-07 04:27N 01°15' E 103°39'2 2.4
2013-Sep-07 03:33N 01°13' E 103°40'1 0.6
2013-Sep-07 02:28N 01°13' E 103°40'2 2.5
2013-Sep-07 01:28N 01°10' E 103°41'4 4.3
2013-Sep-07 00:33N 01°09' E 103°45'4 4.5
2013-Sep-06 23:33N 01°11' E 103°49'4 3.5
2013-Sep-06 22:30N 01°12' E 103°52'3 3.2
2013-Sep-06 21:34N 01°12' E 103°55'3 3.2
2013-Sep-06 20:32N 01°12' E 103°59'0 0.1
2013-Sep-06 19:29N 01°12' E 103°59'0 0.1
2013-Sep-06 18:20N 01°12' E 103°59'0 0.0
2013-Sep-06 17:32N 01°12' E 103°59'0 0.0
2013-Sep-06 16:29N 01°11' E 103°59'0 0.1
2013-Sep-06 13:14N 01°11' E 103°58'0 0.1
2013-Sep-06 10:26N 01°12' E 103°59'0 0.1
2013-Sep-06 09:32N 01°12' E 103°59'0 0.0
2013-Sep-06 08:32N 01°12' E 103°59'0 0.1
2013-Sep-06 07:32N 01°12' E 103°59'0 0.1
2013-Sep-06 06:32N 01°12' E 103°59'0 0.0
2013-Sep-06 05:32N 01°12' E 103°59'0 0.0
2013-Sep-05 23:32N 01°12' E 103°59'0 0.0
2013-Sep-05 22:32N 01°11' E 103°59'0 0.1
2013-Sep-05 21:23N 01°12' E 103°59'0 0.0
2013-Sep-05 20:32N 01°12' E 103°59'0 0.1
2013-Sep-05 19:29N 01°12' E 103°59'0 0.0
2013-Sep-05 18:32N 01°12' E 103°59'0 0.0
2013-Sep-05 17:14N 01°12' E 103°59'0 0.1
2013-Sep-05 16:32N 01°12' E 103°59'0 0.1
2013-Sep-05 14:14N 01°11' E 103°58'0 0.0
2013-Sep-05 13:32N 01°11' E 103°58'0 0.0
2013-Sep-05 12:32N 01°11' E 103°58'0 0.0
2013-Sep-05 10:29N 01°12' E 103°58'0 0.1
2013-Sep-05 08:20N 01°12' E 103°59'0 0.0
2013-Sep-05 07:29N 01°12' E 103°59'0 0.0
2013-Sep-05 04:20N 01°12' E 103°59'0 0.3
2013-Sep-05 03:29N 01°11' E 103°59'0 0.2
2013-Sep-05 02:23N 01°11' E 103°59'0 0.1
2013-Sep-05 00:20N 01°12' E 103°59'0 0.1
2013-Sep-04 23:32N 01°12' E 103°59'0 0.0
2013-Sep-04 22:29N 01°12' E 103°59'0 0.0
2013-Sep-04 21:32N 01°12' E 103°59'0 0.0
2013-Sep-04 18:26N 01°12' E 103°59'0 0.0
2013-Sep-04 17:29N 01°12' E 103°59'0 0.1
2013-Sep-04 16:26N 01°11' E 103°59'0 0.2
2013-Sep-04 15:32N 01°11' E 103°59'0 0.1
2013-Sep-04 14:23N 01°11' E 103°58'0 0.0
2013-Sep-04 13:14N 01°11' E 103°58'0 0.0
2013-Sep-04 08:17N 01°11' E 103°59'0 0.0
2013-Sep-04 07:20N 01°11' E 103°59'0 0.2
2013-Sep-04 06:20N 01°11' E 103°59'0 0.0
2013-Sep-04 05:32N 01°11' E 103°59'0 0.0
2013-Sep-04 04:33N 01°11' E 103°59'0 0.0
2013-Sep-04 02:32N 01°11' E 103°59'0 0.2
2013-Sep-04 01:29N 01°11' E 103°58'0 0.1
2013-Sep-04 00:32N 01°12' E 103°58'0 0.2
2013-Sep-03 23:23N 01°11' E 103°59'0 0.1
2013-Sep-03 22:29N 01°12' E 103°59'0 0.0
2013-Sep-03 21:32N 01°12' E 103°59'0 0.0
2013-Sep-03 20:32N 01°12' E 103°59'0 0.0
2013-Sep-03 19:32N 01°12' E 103°59'0 0.0
2013-Sep-03 18:32N 01°12' E 103°59'0 0.0
2013-Sep-03 17:32N 01°12' E 103°59'0 0.0
2013-Sep-03 16:23N 01°12' E 103°59'0 0.1
2013-Sep-03 15:20N 01°12' E 103°59'0 0.2
2013-Sep-03 14:29N 01°11' E 103°58'0 0.0
2013-Sep-03 13:32N 01°11' E 103°58'0 0.0
2013-Sep-03 12:32N 01°11' E 103°58'0 0.0
2013-Sep-03 11:23N 01°11' E 103°58'0 0.0
2013-Sep-03 10:26N 01°11' E 103°58'0 0.0
2013-Sep-03 09:23N 01°11' E 103°58'0 0.0
2013-Sep-03 07:32N 01°11' E 103°58'0 0.0
2013-Sep-03 02:23N 01°11' E 103°59'0 0.0
2013-Sep-03 01:32N 01°11' E 103°59'0 0.1
2013-Sep-03 00:29N 01°11' E 103°58'0 0.0
2013-Sep-02 23:29N 01°11' E 103°58'0 0.2
2013-Sep-02 22:20N 01°12' E 103°59'0 0.1
2013-Sep-02 21:29N 01°12' E 103°59'0 0.0
2013-Sep-02 20:32N 01°12' E 103°59'0 0.0
2013-Sep-02 19:17N 01°12' E 103°59'0 0.0
2013-Sep-02 18:32N 01°12' E 103°59'0 0.0
2013-Sep-02 17:26N 01°12' E 103°59'0 0.0
2013-Sep-02 16:32N 01°12' E 103°59'0 0.1
2013-Sep-02 15:23N 01°11' E 103°59'0 0.3
2013-Sep-02 14:32N 01°11' E 103°58'0 0.0
2013-Sep-02 11:17N 01°11' E 103°58'0 0.1
2013-Sep-02 10:32N 01°11' E 103°58'0 0.0
2013-Sep-02 08:23N 01°12' E 103°58'0 0.1
2013-Sep-02 07:32N 01°11' E 103°58'0 0.0
2013-Sep-02 06:29N 01°11' E 103°58'0 0.1
2013-Sep-02 05:14N 01°11' E 103°59'0 0.0
2013-Sep-02 04:29N 01°11' E 103°59'0 0.0
2013-Sep-02 03:23N 01°11' E 103°59'0 0.0
2013-Sep-02 02:32N 01°11' E 103°59'0 0.0
2013-Sep-02 00:32N 01°11' E 103°59'0 0.1
2013-Sep-01 22:05N 01°12' E 103°59'0 0.1
2013-Sep-01 21:29N 01°12' E 103°59'0 0.0
2013-Sep-01 20:26N 01°12' E 103°59'0 0.2
2013-Sep-01 19:32N 01°11' E 103°59'0 0.0
2013-Sep-01 18:32N 01°11' E 103°59'0 0.0
2013-Sep-01 16:32N 01°12' E 103°59'0 0.0
2013-Sep-01 15:17N 01°12' E 103°59'0 0.1
2013-Sep-01 14:23N 01°11' E 103°59'0 0.3
2013-Sep-01 13:29N 01°11' E 103°58'0 0.0
2013-Sep-01 12:29N 01°11' E 103°58'0 0.0
2013-Sep-01 11:11N 01°11' E 103°58'0 0.0
2013-Sep-01 10:08N 01°11' E 103°58'0 0.0
2013-Sep-01 08:32N 01°11' E 103°58'0 0.0
2013-Sep-01 07:32N 01°11' E 103°58'0 0.0
2013-Sep-01 06:29N 01°11' E 103°58'0 0.1
2013-Sep-01 05:32N 01°11' E 103°59'0 0.0
2013-Sep-01 04:26N 01°11' E 103°59'0 0.1
2013-Sep-01 03:29N 01°11' E 103°58'0 0.0
2013-Sep-01 01:23N 01°11' E 103°58'0 0.0
2013-Sep-01 00:29N 01°11' E 103°58'0 0.0
2013-Aug-31 23:23N 01°11' E 103°58'0 0.1
2013-Aug-31 22:26N 01°12' E 103°58'0 0.1
2013-Aug-31 19:26N 01°12' E 103°59'0 0.1
2013-Aug-31 18:32N 01°12' E 103°59'0 0.0
2013-Aug-31 17:32N 01°12' E 103°59'0 0.1
2013-Aug-31 16:32N 01°12' E 103°59'0 0.1
2013-Aug-31 15:32N 01°12' E 103°59'0 0.0
2013-Aug-31 14:29N 01°12' E 103°59'0 0.0
2013-Aug-31 13:26N 01°12' E 103°59'0 0.1
2013-Aug-31 11:32N 01°11' E 103°58'0 0.0
2013-Aug-31 10:32N 01°11' E 103°58'0 0.0
2013-Aug-31 07:26N 01°11' E 103°58'0 0.0
2013-Aug-31 06:14N 01°11' E 103°58'0 0.1
2013-Aug-31 05:17N 01°11' E 103°58'0 0.0
2013-Aug-31 04:32N 01°11' E 103°58'0 0.1
2013-Aug-31 03:29N 01°11' E 103°58'0 0.0
2013-Aug-31 02:32N 01°11' E 103°58'0 0.0
2013-Aug-31 01:32N 01°11' E 103°58'0 0.1
2013-Aug-31 00:32N 01°11' E 103°58'0 0.0
2013-Aug-30 23:29N 01°11' E 103°58'0 0.1
2013-Aug-30 19:32N 01°12' E 103°59'0 0.0
2013-Aug-30 18:14N 01°12' E 103°59'0 0.1
2013-Aug-30 17:32N 01°12' E 103°59'0 0.1
2013-Aug-30 16:20N 01°12' E 103°59'0 0.0
2013-Aug-30 15:32N 01°12' E 103°59'0 0.0
2013-Aug-30 14:32N 01°12' E 103°59'0 0.0
2013-Aug-30 13:32N 01°12' E 103°59'0 0.1
2013-Aug-30 12:17N 01°12' E 103°59'0 0.2
2013-Aug-30 11:14N 01°12' E 103°58'0 0.2
2013-Aug-30 10:32N 01°11' E 103°58'0 0.0
2013-Aug-30 09:32N 01°11' E 103°58'0 0.0
2013-Aug-30 08:32N 01°11' E 103°58'0 0.1
2013-Aug-30 07:32N 01°11' E 103°58'0 0.1
2013-Aug-30 06:32N 01°11' E 103°58'0 0.0
2013-Aug-30 02:32N 01°11' E 103°58'0 0.1
2013-Aug-30 01:32N 01°11' E 103°58'0 0.1
2013-Aug-30 00:32N 01°11' E 103°58'0 0.0
2013-Aug-29 20:26N 01°12' E 103°59'0 0.1
2013-Aug-29 19:32N 01°12' E 103°59'0 0.1
2013-Aug-29 18:23N 01°12' E 103°59'0 0.0
2013-Aug-29 17:32N 01°12' E 103°59'0 0.0
2013-Aug-29 16:32N 01°11' E 103°59'0 0.0
2013-Aug-29 15:32N 01°12' E 103°59'0 0.0
2013-Aug-29 14:20N 01°12' E 103°59'0 0.0
2013-Aug-29 13:32N 01°12' E 103°59'0 0.0
2013-Aug-29 12:29N 01°12' E 103°59'0 0.1
2013-Aug-29 11:29N 01°11' E 103°59'0 0.0
2013-Aug-29 10:20N 01°11' E 103°59'0 0.2
2013-Aug-29 09:14N 01°11' E 103°59'0 0.1
2013-Aug-29 08:26N 01°11' E 103°58'  

Dump ship's entire track history